createdAt,value
2023-05-18T00:00:55.361Z,0.00
2023-05-18T00:01:55.356Z,0.00
2023-05-18T00:02:55.381Z,0.00
2023-05-18T00:03:55.471Z,0.00
2023-05-18T00:04:55.410Z,0.00
2023-05-18T00:05:55.310Z,0.00
2023-05-18T00:06:55.291Z,0.00
2023-05-18T00:07:55.299Z,0.00
2023-05-18T00:08:55.274Z,0.00
2023-05-18T00:09:55.304Z,0.00
2023-05-18T00:10:55.235Z,0.00
2023-05-18T00:11:55.242Z,0.00
2023-05-18T00:12:55.226Z,0.00
2023-05-18T00:13:55.224Z,0.00
2023-05-18T00:14:55.232Z,0.00
2023-05-18T00:15:55.243Z,0.00
2023-05-18T00:16:55.192Z,0.00
2023-05-18T00:17:55.218Z,0.00
2023-05-18T00:18:55.186Z,0.00
2023-05-18T00:19:55.189Z,0.00
2023-05-18T00:20:55.143Z,0.00
2023-05-18T00:21:55.136Z,0.00
2023-05-18T00:22:55.122Z,0.00
2023-05-18T00:23:55.113Z,0.00
2023-05-18T00:24:55.128Z,0.00
2023-05-18T00:25:55.096Z,0.00
2023-05-18T00:26:55.078Z,0.00
2023-05-18T00:27:55.083Z,0.00
2023-05-18T00:28:55.059Z,0.00
2023-05-18T00:29:55.047Z,0.00
2023-05-18T00:30:55.059Z,0.00
2023-05-18T00:31:55.103Z,0.00
2023-05-18T00:32:55.076Z,0.00
2023-05-18T00:33:55.014Z,0.00
2023-05-18T00:34:54.988Z,0.00
2023-05-18T00:35:55.017Z,0.00
2023-05-18T00:36:54.976Z,0.00
2023-05-18T00:37:54.972Z,0.00
2023-05-18T00:38:54.962Z,0.00
2023-05-18T00:39:54.962Z,0.00
2023-05-18T00:40:54.963Z,0.00
2023-05-18T00:41:54.949Z,0.00
2023-05-18T00:42:54.918Z,0.00
2023-05-18T00:43:54.920Z,0.00
2023-05-18T00:44:54.897Z,0.00
2023-05-18T00:45:54.927Z,0.00
2023-05-18T00:46:54.905Z,0.00
2023-05-18T00:47:54.907Z,0.00
2023-05-18T00:48:54.857Z,0.00
2023-05-18T00:49:54.855Z,0.00
2023-05-18T00:50:54.832Z,0.00
2023-05-18T00:51:54.854Z,0.00
2023-05-18T00:52:54.827Z,0.00
2023-05-18T00:53:54.814Z,0.00
2023-05-18T00:54:54.797Z,0.00
2023-05-18T00:55:54.807Z,0.00
2023-05-18T00:56:54.793Z,0.00
2023-05-18T00:57:54.774Z,0.00
2023-05-18T00:58:54.748Z,0.00
2023-05-18T00:59:54.756Z,0.00
2023-05-18T01:00:54.787Z,0.00
2023-05-18T01:01:54.836Z,0.00
2023-05-18T01:02:54.874Z,0.00
2023-05-18T01:03:54.705Z,0.00
2023-05-18T01:04:54.690Z,0.00
2023-05-18T01:05:54.704Z,0.00
2023-05-18T01:06:54.673Z,0.00
2023-05-18T01:07:54.694Z,0.00
2023-05-18T01:08:54.642Z,0.00
2023-05-18T01:09:54.636Z,0.00
2023-05-18T01:10:54.705Z,0.00
2023-05-18T01:11:54.625Z,0.00
2023-05-18T01:12:54.636Z,0.00
2023-05-18T01:13:54.611Z,0.00
2023-05-18T01:14:54.583Z,0.00
2023-05-18T01:15:54.618Z,0.00
2023-05-18T01:16:54.593Z,0.00
2023-05-18T01:17:54.636Z,0.00
2023-05-18T01:18:54.579Z,0.00
2023-05-18T01:19:54.539Z,0.00
2023-05-18T01:20:54.541Z,0.00
2023-05-18T01:21:54.513Z,0.00
2023-05-18T01:22:54.526Z,0.00
2023-05-18T01:23:54.487Z,0.00
2023-05-18T01:24:54.476Z,0.00
2023-05-18T01:25:54.528Z,0.00
2023-05-18T01:26:54.481Z,0.00
2023-05-18T01:27:54.464Z,0.00
2023-05-18T01:28:54.467Z,0.00
2023-05-18T01:29:54.433Z,0.00
2023-05-18T01:30:54.482Z,0.00
2023-05-18T01:31:54.458Z,0.00
2023-05-18T01:32:54.453Z,0.00
2023-05-18T01:33:54.402Z,0.00
2023-05-18T01:34:54.379Z,0.00
2023-05-18T01:35:54.379Z,0.00
2023-05-18T01:36:54.373Z,0.00
2023-05-18T01:37:54.346Z,0.00
2023-05-18T01:38:54.340Z,0.00
2023-05-18T01:39:54.342Z,0.00
2023-05-18T01:40:54.319Z,0.00
2023-05-18T01:41:54.342Z,0.00
2023-05-18T01:42:54.289Z,0.00
2023-05-18T01:43:54.292Z,0.00
2023-05-18T01:44:54.277Z,0.00
2023-05-18T01:45:54.278Z,0.00
2023-05-18T01:46:54.314Z,0.00
2023-05-18T01:47:54.251Z,0.00
2023-05-18T01:48:54.247Z,0.00
2023-05-18T01:49:54.226Z,0.00
2023-05-18T01:50:54.205Z,0.00
2023-05-18T01:51:54.221Z,0.00
2023-05-18T01:52:54.184Z,0.00
2023-05-18T01:53:54.190Z,0.00
2023-05-18T01:54:54.196Z,0.00
2023-05-18T01:55:54.160Z,0.00
2023-05-18T01:56:54.169Z,0.00
2023-05-18T01:57:54.138Z,0.00
2023-05-18T01:58:54.127Z,0.00
2023-05-18T01:59:54.135Z,0.00
2023-05-18T02:00:54.099Z,0.00
2023-05-18T02:01:59.594Z,0.00
2023-05-18T02:02:54.177Z,0.00
2023-05-18T02:03:54.186Z,0.00
2023-05-18T02:04:54.062Z,0.00
2023-05-18T02:05:54.070Z,0.00
2023-05-18T02:06:54.067Z,0.00
2023-05-18T02:07:54.041Z,0.00
2023-05-18T02:08:54.012Z,0.00
2023-05-18T02:09:54.014Z,0.00
2023-05-18T02:10:53.998Z,0.00
2023-05-18T02:11:54.031Z,0.00
2023-05-18T02:12:53.980Z,0.00
2023-05-18T02:13:53.988Z,0.00
2023-05-18T02:14:53.957Z,0.00
2023-05-18T02:15:53.981Z,0.00
2023-05-18T02:16:53.960Z,0.00
2023-05-18T02:17:53.963Z,0.00
2023-05-18T02:18:53.940Z,0.00
2023-05-18T02:19:53.932Z,0.00
2023-05-18T02:20:53.895Z,0.00
2023-05-18T02:21:53.903Z,0.00
2023-05-18T02:22:53.875Z,0.00
2023-05-18T02:23:53.870Z,0.00
2023-05-18T02:24:53.896Z,0.00
2023-05-18T02:25:53.854Z,0.00
2023-05-18T02:26:53.848Z,0.00
2023-05-18T02:27:53.771Z,0.00
2023-05-18T02:28:53.808Z,0.00
2023-05-18T02:29:53.807Z,0.00
2023-05-18T02:30:53.762Z,0.00
2023-05-18T02:31:53.813Z,0.00
2023-05-18T02:32:53.824Z,0.00
2023-05-18T02:33:53.711Z,0.00
2023-05-18T02:34:53.694Z,0.00
2023-05-18T02:35:53.692Z,0.00
2023-05-18T02:36:53.692Z,0.00
2023-05-18T02:37:53.709Z,0.00
2023-05-18T02:38:53.651Z,0.00
2023-05-18T02:39:53.648Z,0.00
2023-05-18T02:40:53.637Z,0.00
2023-05-18T02:41:53.632Z,0.00
2023-05-18T02:42:54.142Z,0.00
2023-05-18T02:43:53.608Z,0.00
2023-05-18T02:44:53.592Z,0.00
2023-05-18T02:45:53.587Z,0.00
2023-05-18T02:46:53.568Z,0.00
2023-05-18T02:47:53.625Z,0.00
2023-05-18T02:48:53.552Z,0.00
2023-05-18T02:49:53.562Z,0.00
2023-05-18T02:50:53.530Z,0.00
2023-05-18T02:51:53.531Z,0.00
2023-05-18T02:52:53.546Z,0.00
2023-05-18T02:53:53.500Z,0.00
2023-05-18T02:54:53.485Z,0.00
2023-05-18T02:55:53.487Z,0.00
2023-05-18T02:56:53.470Z,0.00
2023-05-18T02:57:53.506Z,0.00
2023-05-18T02:58:53.446Z,0.00
2023-05-18T02:59:53.462Z,0.00
2023-05-18T03:00:53.458Z,0.00
2023-05-18T03:01:53.426Z,0.00
2023-05-18T03:02:53.553Z,0.00
2023-05-18T03:03:53.404Z,0.00
2023-05-18T03:04:53.382Z,0.00
2023-05-18T03:05:53.390Z,0.00
2023-05-18T03:06:53.372Z,0.00
2023-05-18T03:07:53.396Z,0.00
2023-05-18T03:08:53.370Z,0.00
2023-05-18T03:09:53.346Z,0.00
2023-05-18T03:10:53.338Z,0.00
2023-05-18T03:11:53.334Z,0.00
2023-05-18T03:12:53.306Z,0.00
2023-05-18T03:13:53.327Z,0.00
2023-05-18T03:14:53.298Z,0.00
2023-05-18T03:15:53.288Z,0.00
2023-05-18T03:16:53.369Z,0.00
2023-05-18T03:17:53.287Z,5.62
2023-05-18T03:18:53.316Z,5.62
2023-05-18T03:19:53.246Z,5.62
2023-05-18T03:20:53.250Z,5.62
2023-05-18T03:21:53.231Z,5.62
2023-05-18T03:22:53.210Z,5.62
2023-05-18T03:23:53.224Z,5.62
2023-05-18T03:24:53.195Z,5.62
2023-05-18T03:25:53.184Z,5.62
2023-05-18T03:26:53.161Z,5.62
2023-05-18T03:27:53.168Z,5.62
2023-05-18T03:28:53.170Z,5.62
2023-05-18T03:29:53.144Z,5.62
2023-05-18T03:30:53.122Z,11.25
2023-05-18T03:31:53.192Z,11.25
2023-05-18T03:32:53.304Z,11.25
2023-05-18T03:33:53.143Z,11.25
2023-05-18T03:34:53.136Z,11.25
2023-05-18T03:35:53.078Z,11.25
2023-05-18T03:36:53.110Z,11.25
2023-05-18T03:37:53.053Z,11.25
2023-05-18T03:38:53.061Z,11.25
2023-05-18T03:39:53.056Z,11.25
2023-05-18T03:40:53.042Z,11.25
2023-05-18T03:41:53.053Z,11.25
2023-05-18T03:42:53.009Z,16.88
2023-05-18T03:43:53.003Z,16.88
2023-05-18T03:44:53.029Z,16.88
2023-05-18T03:45:53.011Z,16.88
2023-05-18T03:46:53.042Z,16.88
2023-05-18T03:47:53.052Z,16.88
2023-05-18T03:48:52.946Z,16.88
2023-05-18T03:49:52.964Z,16.88
2023-05-18T03:50:52.929Z,16.88
2023-05-18T03:51:52.914Z,16.88
2023-05-18T03:52:52.923Z,16.88
2023-05-18T03:53:52.896Z,16.88
2023-05-18T03:54:52.922Z,22.50
2023-05-18T03:55:52.872Z,22.50
2023-05-18T03:56:52.877Z,22.50
2023-05-18T03:57:52.853Z,22.50
2023-05-18T03:58:52.882Z,22.50
2023-05-18T03:59:52.829Z,22.50
2023-05-18T04:00:52.820Z,22.50
2023-05-18T04:01:52.840Z,22.50
2023-05-18T04:02:52.967Z,22.50
2023-05-18T04:03:52.840Z,22.50
2023-05-18T04:04:52.809Z,22.50
2023-05-18T04:05:52.764Z,22.50
2023-05-18T04:06:52.773Z,22.50
2023-05-18T04:07:52.756Z,22.50
2023-05-18T04:08:52.772Z,22.50
2023-05-18T04:09:52.753Z,22.50
2023-05-18T04:10:52.732Z,28.12
2023-05-18T04:11:52.696Z,28.12
2023-05-18T04:12:52.710Z,28.12
2023-05-18T04:13:52.686Z,28.12
2023-05-18T04:14:52.706Z,28.12
2023-05-18T04:15:52.780Z,28.12
2023-05-18T04:16:52.789Z,28.12
2023-05-18T04:17:52.694Z,28.12
2023-05-18T04:18:52.756Z,28.12
2023-05-18T04:19:52.620Z,28.12
2023-05-18T04:20:52.645Z,28.12
2023-05-18T04:21:52.621Z,28.12
2023-05-18T04:22:52.601Z,28.12
2023-05-18T04:23:52.617Z,28.12
2023-05-18T04:24:52.615Z,28.12
2023-05-18T04:25:52.566Z,28.12
2023-05-18T04:26:52.568Z,28.12
2023-05-18T04:27:52.538Z,33.75
2023-05-18T04:28:52.552Z,33.75
2023-05-18T04:29:52.546Z,33.75
2023-05-18T04:30:52.522Z,33.75
2023-05-18T04:31:52.591Z,33.75
2023-05-18T04:32:52.535Z,33.75
2023-05-18T04:33:52.505Z,33.75
2023-05-18T04:34:52.477Z,33.75
2023-05-18T04:35:52.465Z,33.75
2023-05-18T04:36:52.490Z,33.75
2023-05-18T04:37:52.453Z,33.75
2023-05-18T04:38:52.470Z,33.75
2023-05-18T04:39:52.429Z,33.75
2023-05-18T04:40:52.419Z,33.75
2023-05-18T04:41:52.426Z,39.38
2023-05-18T04:42:52.392Z,39.38
2023-05-18T04:43:55.698Z,39.38
2023-05-18T04:44:52.405Z,39.38
2023-05-18T04:45:52.360Z,39.38
2023-05-18T04:46:53.960Z,39.38
2023-05-18T04:47:52.991Z,39.38
2023-05-18T04:48:53.995Z,39.38
2023-05-18T04:49:53.157Z,39.38
2023-05-18T04:50:53.033Z,39.38
2023-05-18T04:51:53.854Z,39.38
2023-05-18T04:52:54.057Z,39.38
2023-05-18T04:53:53.925Z,45.00
2023-05-18T04:54:53.817Z,45.00
2023-05-18T04:55:52.974Z,45.00
2023-05-18T04:56:55.697Z,45.00
2023-05-18T04:57:52.236Z,45.00
2023-05-18T04:58:52.229Z,45.00
2023-05-18T04:59:52.218Z,45.00
2023-05-18T05:00:52.981Z,45.00
2023-05-18T05:01:52.808Z,50.62
2023-05-18T05:02:52.297Z,50.62
2023-05-18T05:03:52.224Z,50.62
2023-05-18T05:04:52.192Z,50.62
2023-05-18T05:05:55.185Z,50.62
2023-05-18T05:06:52.146Z,50.62
2023-05-18T05:07:52.145Z,56.25
2023-05-18T05:08:55.080Z,56.25
2023-05-18T05:09:53.725Z,56.25
2023-05-18T05:10:53.673Z,56.25
2023-05-18T05:11:54.427Z,56.25
2023-05-18T05:12:53.989Z,56.25
2023-05-18T05:13:52.749Z,56.25
2023-05-18T05:14:52.058Z,56.25
2023-05-18T05:15:55.259Z,61.88
2023-05-18T05:16:55.389Z,61.88
2023-05-18T05:17:52.771Z,61.88
2023-05-18T05:18:52.020Z,61.88
2023-05-18T05:19:52.680Z,67.50
2023-05-18T05:20:52.647Z,67.50
2023-05-18T05:21:53.603Z,67.50
2023-05-18T05:22:51.992Z,67.50
2023-05-18T05:23:52.606Z,73.12
2023-05-18T05:24:51.949Z,73.12
2023-05-18T05:25:51.932Z,78.75
2023-05-18T05:26:51.939Z,78.75
2023-05-18T05:27:53.537Z,78.75
2023-05-18T05:28:52.622Z,78.75
2023-05-18T05:29:51.886Z,78.75
2023-05-18T05:30:51.894Z,78.75
2023-05-18T05:31:51.912Z,78.75
2023-05-18T05:32:51.931Z,84.38
2023-05-18T05:33:51.857Z,84.38
2023-05-18T05:34:53.495Z,84.38
2023-05-18T05:35:53.438Z,84.38
2023-05-18T05:36:52.520Z,84.38
2023-05-18T05:37:53.367Z,90.00
2023-05-18T05:38:51.818Z,90.00
2023-05-18T05:39:52.443Z,90.00
2023-05-18T05:40:53.379Z,90.00
2023-05-18T05:41:52.490Z,90.00
2023-05-18T05:42:53.381Z,90.00
2023-05-18T05:43:53.390Z,95.62
2023-05-18T05:44:52.380Z,95.62
2023-05-18T05:45:53.270Z,95.62
2023-05-18T05:46:53.381Z,95.62
2023-05-18T05:47:51.734Z,95.62
2023-05-18T05:48:53.309Z,95.62
2023-05-18T05:49:51.732Z,95.62
2023-05-18T05:50:51.690Z,95.62
2023-05-18T05:51:53.370Z,95.62
2023-05-18T05:52:51.656Z,95.62
2023-05-18T05:53:53.222Z,95.62
2023-05-18T05:54:51.638Z,95.62
2023-05-18T05:55:51.641Z,95.62
2023-05-18T05:56:51.626Z,95.62
2023-05-18T05:57:53.221Z,95.62
2023-05-18T05:58:51.603Z,95.62
2023-05-18T05:59:51.599Z,101.25
2023-05-18T06:00:51.584Z,101.25
2023-05-18T06:01:52.155Z,101.25
2023-05-18T06:02:51.631Z,101.25
2023-05-18T06:03:51.586Z,101.25
2023-05-18T06:04:51.605Z,106.88
2023-05-18T06:05:51.577Z,106.88
2023-05-18T06:06:53.049Z,112.50
2023-05-18T06:07:52.118Z,112.50
2023-05-18T06:08:51.580Z,118.12
2023-05-18T06:09:51.483Z,118.12
2023-05-18T06:10:52.404Z,123.75
2023-05-18T06:45:25.068Z,635.62
2023-05-18T06:46:26.111Z,669.38
2023-05-18T06:47:26.029Z,703.12
2023-05-18T06:48:26.040Z,686.25
2023-05-18T06:49:26.002Z,646.88
2023-05-18T06:50:26.003Z,624.38
2023-05-18T06:51:26.007Z,652.50
2023-05-18T06:52:27.186Z,646.88
2023-05-18T06:53:25.965Z,675.00
2023-05-18T06:54:25.966Z,635.62
2023-05-18T06:55:25.944Z,646.88
2023-05-18T06:56:25.960Z,703.12
2023-05-18T06:57:25.930Z,708.75
2023-05-18T06:58:26.831Z,680.62
2023-05-18T06:59:26.814Z,748.12
2023-05-18T07:00:25.920Z,748.12
2023-05-18T07:01:25.909Z,759.38
2023-05-18T07:02:25.955Z,708.75
2023-05-18T07:03:25.915Z,669.38
2023-05-18T07:04:25.854Z,691.88
2023-05-18T07:05:25.855Z,663.75
2023-05-18T07:06:25.863Z,646.88
2023-05-18T07:07:25.848Z,748.12
2023-05-18T07:08:25.828Z,759.38
2023-05-18T07:09:25.787Z,781.88
2023-05-18T07:10:25.792Z,826.88
2023-05-18T07:11:28.092Z,866.25
2023-05-18T07:12:25.788Z,855.00
2023-05-18T07:13:26.923Z,798.75
2023-05-18T07:14:25.777Z,838.12
2023-05-18T07:15:25.739Z,900.00
2023-05-18T07:16:25.815Z,826.88
2023-05-18T07:17:26.925Z,877.50
2023-05-18T07:18:25.709Z,871.88
2023-05-18T07:19:25.821Z,843.75
2023-05-18T07:20:26.538Z,793.12
2023-05-18T07:21:25.693Z,793.12
2023-05-18T07:22:26.271Z,843.75
2023-05-18T07:23:25.644Z,894.38
2023-05-18T07:24:25.645Z,894.38
2023-05-18T07:25:25.628Z,916.88
2023-05-18T07:26:26.280Z,967.50
2023-05-18T07:27:27.261Z,990.00
2023-05-18T07:28:27.236Z,973.12
2023-05-18T07:29:27.204Z,978.75
2023-05-18T07:30:25.580Z,939.38
2023-05-18T07:31:25.622Z,933.75
2023-05-18T07:32:27.130Z,945.00
2023-05-18T07:33:25.549Z,945.00
2023-05-18T07:34:25.575Z,945.00
2023-05-18T07:35:26.137Z,916.88
2023-05-18T07:36:25.565Z,945.00
2023-05-18T07:37:26.138Z,961.88
2023-05-18T07:38:25.501Z,1012.50
2023-05-18T07:39:25.508Z,1006.88
2023-05-18T07:40:25.506Z,1057.50
2023-05-18T07:41:26.072Z,1085.62
2023-05-18T07:42:25.474Z,1040.62
2023-05-18T07:43:25.440Z,360.00
2023-05-18T07:44:25.472Z,185.62
2023-05-18T07:45:27.042Z,151.88
2023-05-18T07:46:25.475Z,405.00
2023-05-18T07:47:27.084Z,1012.50
2023-05-18T07:48:25.402Z,984.38
2023-05-18T07:49:26.004Z,613.12
2023-05-18T07:50:25.410Z,118.12
2023-05-18T07:51:26.977Z,129.38
2023-05-18T07:52:25.357Z,140.62
2023-05-18T07:53:26.979Z,112.50
2023-05-18T07:54:26.980Z,112.50
2023-05-18T07:55:26.907Z,129.38
2023-05-18T07:56:26.853Z,140.62
2023-05-18T07:57:27.014Z,933.75
2023-05-18T07:58:25.883Z,961.88
2023-05-18T07:59:25.316Z,236.25
2023-05-18T08:00:25.304Z,135.00
2023-05-18T08:01:25.270Z,135.00
2023-05-18T08:02:25.373Z,258.75
2023-05-18T08:03:26.900Z,129.38
2023-05-18T08:04:25.958Z,123.75
2023-05-18T08:05:25.241Z,135.00
2023-05-18T08:06:26.814Z,151.88
2023-05-18T08:07:26.893Z,157.50
2023-05-18T08:08:25.890Z,168.75
2023-05-18T08:09:25.204Z,208.12
2023-05-18T08:10:25.207Z,196.88
2023-05-18T08:11:25.173Z,191.25
2023-05-18T08:12:25.177Z,320.62
2023-05-18T08:13:25.143Z,326.25
2023-05-18T08:14:25.123Z,331.88
2023-05-18T08:15:26.680Z,337.50
2023-05-18T08:16:26.676Z,286.88
2023-05-18T08:17:25.166Z,241.88
2023-05-18T08:18:25.763Z,208.12
2023-05-18T08:19:25.179Z,202.50
2023-05-18T08:20:25.096Z,225.00
2023-05-18T08:21:25.079Z,174.38
2023-05-18T08:22:25.070Z,157.50
2023-05-18T08:23:25.037Z,151.88
2023-05-18T08:24:25.709Z,174.38
2023-05-18T08:25:25.021Z,500.62
2023-05-18T08:26:25.602Z,213.75
2023-05-18T08:27:26.582Z,213.75
2023-05-18T08:28:25.019Z,202.50
2023-05-18T08:29:24.975Z,208.12
2023-05-18T08:30:25.563Z,472.50
2023-05-18T08:31:26.632Z,219.38
2023-05-18T08:32:24.978Z,202.50
2023-05-18T08:33:24.961Z,208.12
2023-05-18T08:34:26.461Z,230.62
2023-05-18T08:35:24.921Z,416.25
2023-05-18T08:36:26.102Z,241.88
2023-05-18T08:37:24.922Z,1130.62
2023-05-18T08:38:24.899Z,1231.88
2023-05-18T08:39:24.864Z,1310.62
2023-05-18T08:40:24.907Z,1411.88
2023-05-18T08:41:24.860Z,2874.38
2023-05-18T08:42:27.711Z,1350.00
2023-05-18T08:43:24.887Z,714.38
2023-05-18T08:44:27.940Z,258.75
2023-05-18T08:45:24.860Z,219.38
2023-05-18T08:46:24.786Z,270.00
2023-05-18T08:47:24.808Z,410.62
2023-05-18T08:48:27.239Z,298.12
2023-05-18T08:49:25.402Z,343.12
2023-05-18T08:50:24.793Z,241.88
2023-05-18T08:51:24.751Z,230.62
2023-05-18T08:52:25.334Z,236.25
2023-05-18T08:53:24.746Z,258.75
2023-05-18T08:54:24.708Z,258.75
2023-05-18T08:55:24.708Z,348.75
2023-05-18T08:56:26.332Z,286.88
2023-05-18T08:57:24.678Z,208.12
2023-05-18T08:58:25.444Z,208.12
2023-05-18T08:59:27.521Z,219.38
2023-05-18T09:00:25.018Z,388.12
2023-05-18T09:01:25.303Z,444.38
2023-05-18T09:02:25.248Z,191.25
2023-05-18T09:03:25.247Z,191.25
2023-05-18T09:04:25.235Z,202.50
2023-05-18T09:05:24.657Z,213.75
2023-05-18T09:06:25.246Z,225.00
2023-05-18T09:07:24.582Z,236.25
2023-05-18T09:08:24.581Z,258.75
2023-05-18T09:09:25.799Z,241.88
2023-05-18T09:10:24.561Z,213.75
2023-05-18T09:11:24.544Z,196.88
2023-05-18T09:12:24.852Z,196.88
2023-05-18T09:13:24.512Z,281.25
2023-05-18T09:14:25.125Z,1321.88
2023-05-18T09:15:24.526Z,2874.38
2023-05-18T09:16:24.760Z,2874.38
2023-05-18T09:17:24.696Z,196.88
2023-05-18T09:18:26.791Z,180.00
2023-05-18T09:19:25.173Z,180.00
2023-05-18T09:20:25.943Z,185.62
2023-05-18T09:21:24.437Z,196.88
2023-05-18T09:22:25.016Z,202.50
2023-05-18T09:23:25.687Z,264.38
2023-05-18T09:24:25.046Z,1406.25
2023-05-18T09:25:24.403Z,225.00
2023-05-18T09:26:24.394Z,219.38
2023-05-18T09:27:26.954Z,236.25
2023-05-18T09:28:24.350Z,258.75
2023-05-18T09:29:25.067Z,275.62
2023-05-18T09:30:25.681Z,331.88
2023-05-18T09:31:24.880Z,393.75
2023-05-18T09:32:26.207Z,320.62
2023-05-18T09:33:24.397Z,208.12
2023-05-18T09:34:24.962Z,191.25
2023-05-18T09:35:25.964Z,185.62
2023-05-18T09:36:24.959Z,185.62
2023-05-18T09:37:24.270Z,185.62
2023-05-18T09:38:24.247Z,185.62
2023-05-18T09:39:24.282Z,191.25
2023-05-18T09:40:25.456Z,191.25
2023-05-18T09:41:25.874Z,191.25
2023-05-18T09:42:25.780Z,191.25
2023-05-18T09:43:24.213Z,196.88
2023-05-18T09:44:25.832Z,202.50
2023-05-18T09:45:24.232Z,213.75
2023-05-18T09:46:24.211Z,219.38
2023-05-18T09:47:24.940Z,225.00
2023-05-18T09:48:25.468Z,225.00
2023-05-18T09:49:25.687Z,236.25
2023-05-18T09:50:25.733Z,241.88
2023-05-18T09:51:24.849Z,241.88
2023-05-18T09:52:24.109Z,236.25
2023-05-18T09:53:26.352Z,230.62
2023-05-18T09:54:28.370Z,225.00
2023-05-18T09:55:24.090Z,230.62
2023-05-18T09:56:24.702Z,236.25
2023-05-18T09:57:24.068Z,270.00
2023-05-18T09:58:24.040Z,331.88
2023-05-18T09:59:25.503Z,337.50
2023-05-18T10:00:25.790Z,337.50
2023-05-18T10:01:24.209Z,343.12
2023-05-18T10:02:24.660Z,343.12
2023-05-18T10:03:24.639Z,331.88
2023-05-18T10:04:25.634Z,315.00
2023-05-18T10:05:24.612Z,315.00
2023-05-18T10:06:24.596Z,230.62
2023-05-18T10:07:25.607Z,219.38
2023-05-18T10:08:25.291Z,208.12
2023-05-18T10:09:23.976Z,219.38
2023-05-18T10:10:23.962Z,253.12
2023-05-18T10:11:24.326Z,247.50
2023-05-18T10:12:25.248Z,258.75
2023-05-18T10:13:23.899Z,258.75
2023-05-18T10:14:23.885Z,258.75
2023-05-18T10:15:23.878Z,264.38
2023-05-18T10:16:24.478Z,281.25
2023-05-18T10:17:25.963Z,292.50
2023-05-18T10:18:23.962Z,258.75
2023-05-18T10:19:23.874Z,236.25
2023-05-18T10:20:23.848Z,225.00
2023-05-18T10:21:24.442Z,219.38
2023-05-18T10:22:24.440Z,225.00
2023-05-18T10:35:20.963Z,185.62
2023-05-18T10:36:21.930Z,191.25
2023-05-18T10:37:21.901Z,168.75
2023-05-18T10:38:21.884Z,163.12
2023-05-18T10:39:21.890Z,174.38
2023-05-18T10:40:21.887Z,185.62
2023-05-18T10:41:21.902Z,208.12
2023-05-18T10:42:21.842Z,236.25
2023-05-18T10:43:23.385Z,298.12
2023-05-18T10:44:21.821Z,309.38
2023-05-18T10:45:21.862Z,320.62
2023-05-18T10:46:22.990Z,320.62
2023-05-18T10:47:23.064Z,264.38
2023-05-18T10:48:21.975Z,241.88
2023-05-18T10:49:21.787Z,225.00
2023-05-18T10:50:21.758Z,213.75
2023-05-18T10:51:21.786Z,208.12
2023-05-18T10:52:21.750Z,196.88
2023-05-18T10:53:21.745Z,196.88
2023-05-18T10:54:21.730Z,196.88
2023-05-18T10:55:21.744Z,196.88
2023-05-18T10:56:21.711Z,208.12
2023-05-18T10:57:21.741Z,264.38
2023-05-18T10:58:21.688Z,286.88
2023-05-18T10:59:21.701Z,703.12
2023-05-18T11:00:22.492Z,781.88
2023-05-18T11:01:21.725Z,275.62
2023-05-18T11:02:21.657Z,236.25
2023-05-18T11:03:21.648Z,241.88
2023-05-18T11:04:21.664Z,253.12
2023-05-18T11:05:21.838Z,253.12
2023-05-18T11:06:21.596Z,247.50
2023-05-18T11:07:21.592Z,264.38
2023-05-18T11:08:21.567Z,275.62
2023-05-18T11:09:21.615Z,281.25
2023-05-18T11:10:21.773Z,281.25
2023-05-18T11:11:21.561Z,286.88
2023-05-18T11:12:21.537Z,303.75
2023-05-18T11:13:22.760Z,303.75
2023-05-18T11:14:21.519Z,286.88
2023-05-18T11:15:21.550Z,320.62
2023-05-18T11:16:21.570Z,309.38
2023-05-18T11:17:21.494Z,298.12
2023-05-18T11:18:21.474Z,292.50
2023-05-18T11:19:21.528Z,275.62
2023-05-18T11:20:21.478Z,241.88
2023-05-18T11:21:21.451Z,219.38
2023-05-18T11:22:21.433Z,236.25
2023-05-18T11:23:21.851Z,191.25
2023-05-18T11:24:21.418Z,168.75
2023-05-18T11:25:21.447Z,157.50
2023-05-18T11:26:21.395Z,140.62
2023-05-18T11:27:21.385Z,140.62
2023-05-18T11:28:21.365Z,146.25
2023-05-18T11:29:21.374Z,140.62
2023-05-18T11:30:21.341Z,140.62
2023-05-18T11:31:21.371Z,140.62
2023-05-18T11:32:29.128Z,180.00
2023-05-18T11:33:21.364Z,191.25
2023-05-18T11:34:21.302Z,196.88
2023-05-18T11:35:21.325Z,202.50
2023-05-18T11:36:21.326Z,208.12
2023-05-18T11:37:21.288Z,219.38
2023-05-18T11:38:21.288Z,230.62
2023-05-18T11:39:21.261Z,247.50
2023-05-18T11:40:21.279Z,270.00
2023-05-18T11:41:21.279Z,275.62
2023-05-18T11:42:21.249Z,281.25
2023-05-18T11:43:21.276Z,275.62
2023-05-18T11:44:21.200Z,241.88
2023-05-18T11:45:21.206Z,247.50
2023-05-18T11:46:21.204Z,258.75
2023-05-18T11:47:21.175Z,247.50
2023-05-18T11:48:21.248Z,247.50
2023-05-18T11:49:21.161Z,241.88
2023-05-18T11:50:21.169Z,247.50
2023-05-18T11:51:21.146Z,247.50
2023-05-18T11:52:21.148Z,275.62
2023-05-18T11:53:21.110Z,247.50
2023-05-18T11:54:21.100Z,253.12
2023-05-18T11:55:21.203Z,275.62
2023-05-18T11:56:21.086Z,258.75
2023-05-18T11:57:21.080Z,292.50
2023-05-18T11:58:21.056Z,270.00
2023-05-18T11:59:21.058Z,253.12
2023-05-18T12:00:21.201Z,253.12
2023-05-18T12:01:21.036Z,247.50
2023-05-18T12:02:22.311Z,253.12
2023-05-18T12:03:21.102Z,264.38
2023-05-18T12:04:21.154Z,264.38
2023-05-18T12:05:22.405Z,253.12
2023-05-18T12:06:21.005Z,241.88
2023-05-18T12:07:20.979Z,236.25
2023-05-18T12:08:21.016Z,225.00
2023-05-18T12:09:20.960Z,213.75
2023-05-18T12:10:21.026Z,219.38
2023-05-18T12:11:20.952Z,230.62
2023-05-18T12:12:20.957Z,219.38
2023-05-18T12:13:20.925Z,225.00
2023-05-18T12:14:20.919Z,219.38
2023-05-18T12:15:20.925Z,225.00
2023-05-18T12:16:20.911Z,236.25
2023-05-18T12:17:20.885Z,247.50
2023-05-18T12:18:20.890Z,253.12
2023-05-18T12:19:20.910Z,258.75
2023-05-18T12:20:20.876Z,264.38
2023-05-18T12:21:22.199Z,275.62
2023-05-18T12:22:20.844Z,281.25
2023-05-18T12:23:20.821Z,281.25
2023-05-18T12:24:20.816Z,286.88
2023-05-18T12:25:20.800Z,292.50
2023-05-18T12:26:20.794Z,275.62
2023-05-18T12:27:20.775Z,264.38
2023-05-18T12:28:20.753Z,258.75
2023-05-18T12:29:20.787Z,264.38
2023-05-18T12:30:20.776Z,264.38
2023-05-18T12:31:20.763Z,247.50
2023-05-18T12:32:20.733Z,241.88
2023-05-18T12:33:20.714Z,241.88
2023-05-18T12:34:20.696Z,236.25
2023-05-18T12:35:20.691Z,230.62
2023-05-18T12:36:20.704Z,241.88
2023-05-18T12:37:22.196Z,258.75
2023-05-18T12:38:20.650Z,264.38
2023-05-18T12:39:20.643Z,264.38
2023-05-18T12:40:20.650Z,270.00
2023-05-18T12:41:20.653Z,236.25
2023-05-18T12:42:20.607Z,236.25
2023-05-18T12:43:20.630Z,230.62
2023-05-18T12:44:20.591Z,241.88
2023-05-18T12:45:20.614Z,247.50
2023-05-18T12:46:20.614Z,247.50
2023-05-18T12:47:20.639Z,247.50
2023-05-18T12:48:20.651Z,253.12
2023-05-18T12:49:20.540Z,253.12
2023-05-18T12:50:20.554Z,270.00
2023-05-18T12:51:20.528Z,286.88
2023-05-18T12:52:20.502Z,286.88
2023-05-18T12:53:20.502Z,298.12
2023-05-18T12:54:20.482Z,298.12
2023-05-18T12:55:20.492Z,309.38
2023-05-18T12:56:20.480Z,303.75
2023-05-18T12:57:20.467Z,298.12
2023-05-18T12:58:20.453Z,309.38
2023-05-18T12:59:20.470Z,286.88
2023-05-18T13:00:20.423Z,298.12
2023-05-18T13:01:20.515Z,303.75
2023-05-18T13:02:20.398Z,309.38
2023-05-18T13:03:20.548Z,303.75
2023-05-18T13:04:20.422Z,298.12
2023-05-18T13:05:20.382Z,264.38
2023-05-18T13:06:20.390Z,264.38
2023-05-18T13:07:20.365Z,247.50
2023-05-18T13:08:20.352Z,247.50
2023-05-18T13:09:20.343Z,264.38
2023-05-18T13:10:20.329Z,270.00
2023-05-18T13:11:20.339Z,270.00
2023-05-18T13:12:20.312Z,270.00
2023-05-18T13:13:20.294Z,281.25
2023-05-18T13:14:20.292Z,270.00
2023-05-18T13:15:20.284Z,253.12
2023-05-18T13:16:20.337Z,247.50
2023-05-18T13:17:20.264Z,219.38
2023-05-18T13:18:20.261Z,208.12
2023-05-18T13:19:20.282Z,202.50
2023-05-18T13:20:20.239Z,174.38
2023-05-18T13:21:20.256Z,151.88
2023-05-18T13:22:20.219Z,146.25
2023-05-18T13:23:20.188Z,146.25
2023-05-18T13:24:20.188Z,140.62
2023-05-18T13:25:20.170Z,140.62
2023-05-18T13:26:20.612Z,146.25
2023-05-18T13:27:20.186Z,185.62
2023-05-18T13:28:20.188Z,1366.88
2023-05-18T13:29:20.125Z,1366.88
2023-05-18T13:30:20.134Z,1378.12
2023-05-18T13:31:20.136Z,2874.38